sensor_id;sensor_type;location;lat;lon;timestamp;temperature;humidity
22108;DHT22;11220;48.812;9.128;2023-02-10T00:02:22;15.70;65.50
22108;DHT22;11220;48.812;9.128;2023-02-10T00:04:48;15.70;65.50
22108;DHT22;11220;48.812;9.128;2023-02-10T00:07:14;15.70;65.50
22108;DHT22;11220;48.812;9.128;2023-02-10T00:09:39;15.70;65.50
22108;DHT22;11220;48.812;9.128;2023-02-10T00:12:05;15.60;65.50
22108;DHT22;11220;48.812;9.128;2023-02-10T00:14:33;15.60;65.50
22108;DHT22;11220;48.812;9.128;2023-02-10T00:16:58;15.60;65.40
22108;DHT22;11220;48.812;9.128;2023-02-10T00:19:26;15.60;65.50
22108;DHT22;11220;48.812;9.128;2023-02-10T00:21:52;15.60;65.40
22108;DHT22;11220;48.812;9.128;2023-02-10T00:24:19;15.60;65.40
22108;DHT22;11220;48.812;9.128;2023-02-10T00:26:45;15.60;65.40
22108;DHT22;11220;48.812;9.128;2023-02-10T00:29:10;15.60;65.40
22108;DHT22;11220;48.812;9.128;2023-02-10T00:31:36;15.50;65.30
22108;DHT22;11220;48.812;9.128;2023-02-10T00:34:01;15.60;65.50
22108;DHT22;11220;48.812;9.128;2023-02-10T00:36:27;15.60;65.50
22108;DHT22;11220;48.812;9.128;2023-02-10T00:38:53;15.60;65.50
22108;DHT22;11220;48.812;9.128;2023-02-10T00:41:23;15.60;65.50
22108;DHT22;11220;48.812;9.128;2023-02-10T00:43:50;15.50;65.40
22108;DHT22;11220;48.812;9.128;2023-02-10T00:46:17;15.50;65.50
22108;DHT22;11220;48.812;9.128;2023-02-10T00:48:44;15.50;65.40
22108;DHT22;11220;48.812;9.128;2023-02-10T00:51:10;15.50;65.40
22108;DHT22;11220;48.812;9.128;2023-02-10T00:53:36;15.50;65.30
22108;DHT22;11220;48.812;9.128;2023-02-10T00:56:02;15.50;65.40
22108;DHT22;11220;48.812;9.128;2023-02-10T00:58:28;15.40;65.40
22108;DHT22;11220;48.812;9.128;2023-02-10T01:00:54;15.50;65.40
22108;DHT22;11220;48.812;9.128;2023-02-10T01:03:20;15.50;65.40
22108;DHT22;11220;48.812;9.128;2023-02-10T01:05:46;15.40;65.40
22108;DHT22;11220;48.812;9.128;2023-02-10T01:08:12;15.40;65.40
22108;DHT22;11220;48.812;9.128;2023-02-10T01:10:38;15.40;65.40
22108;DHT22;11220;48.812;9.128;2023-02-10T01:13:05;15.50;65.50
22108;DHT22;11220;48.812;9.128;2023-02-10T01:15:31;15.40;65.40
22108;DHT22;11220;48.812;9.128;2023-02-10T01:17:57;15.40;65.40
22108;DHT22;11220;48.812;9.128;2023-02-10T01:20:23;15.40;65.40
22108;DHT22;11220;48.812;9.128;2023-02-10T01:22:48;15.40;65.40
22108;DHT22;11220;48.812;9.128;2023-02-10T01:25:14;15.40;65.40
22108;DHT22;11220;48.812;9.128;2023-02-10T01:27:39;15.40;65.40
22108;DHT22;11220;48.812;9.128;2023-02-10T01:30:05;15.40;65.40
22108;DHT22;11220;48.812;9.128;2023-02-10T01:32:31;15.40;65.40
22108;DHT22;11220;48.812;9.128;2023-02-10T01:34:56;15.30;65.20
22108;DHT22;11220;48.812;9.128;2023-02-10T01:37:22;15.30;65.30
22108;DHT22;11220;48.812;9.128;2023-02-10T01:39:47;15.30;65.30
22108;DHT22;11220;48.812;9.128;2023-02-10T01:42:14;15.30;65.40
22108;DHT22;11220;48.812;9.128;2023-02-10T01:47:05;15.30;65.30
22108;DHT22;11220;48.812;9.128;2023-02-10T01:49:38;15.30;65.30
22108;DHT22;11220;48.812;9.128;2023-02-10T01:52:12;15.30;65.30
22108;DHT22;11220;48.812;9.128;2023-02-10T01:54:45;15.30;65.40
22108;DHT22;11220;48.812;9.128;2023-02-10T01:57:12;15.30;65.30
22108;DHT22;11220;48.812;9.128;2023-02-10T01:59:39;15.30;65.40
22108;DHT22;11220;48.812;9.128;2023-02-10T02:02:06;15.20;65.30
22108;DHT22;11220;48.812;9.128;2023-02-10T02:04:53;15.20;65.30
22108;DHT22;11220;48.812;9.128;2023-02-10T02:07:22;15.20;65.30
22108;DHT22;11220;48.812;9.128;2023-02-10T02:09:50;15.20;65.30
22108;DHT22;11220;48.812;9.128;2023-02-10T02:15:03;15.20;65.20
22108;DHT22;11220;48.812;9.128;2023-02-10T02:21:15;15.20;65.20
22108;DHT22;11220;48.812;9.128;2023-02-10T02:24:21;15.20;65.30
22108;DHT22;11220;48.812;9.128;2023-02-10T02:30:07;15.20;65.30
22108;DHT22;11220;48.812;9.128;2023-02-10T02:32:46;15.20;65.20
22108;DHT22;11220;48.812;9.128;2023-02-10T02:35:26;15.10;65.10
22108;DHT22;11220;48.812;9.128;2023-02-10T02:37:53;15.10;66.00
22108;DHT22;11220;48.812;9.128;2023-02-10T02:40:20;15.20;65.20
22108;DHT22;11220;48.812;9.128;2023-02-10T02:42:45;15.10;65.10
22108;DHT22;11220;48.812;9.128;2023-02-10T02:45:19;15.10;65.10
22108;DHT22;11220;48.812;9.128;2023-02-10T02:47:56;15.10;65.20
22108;DHT22;11220;48.812;9.128;2023-02-10T02:50:53;15.10;65.20
22108;DHT22;11220;48.812;9.128;2023-02-10T02:58:50;15.10;65.10
22108;DHT22;11220;48.812;9.128;2023-02-10T03:01:31;15.10;65.20
22108;DHT22;11220;48.812;9.128;2023-02-10T03:04:01;15.10;65.10
22108;DHT22;11220;48.812;9.128;2023-02-10T03:06:28;15.10;65.10
22108;DHT22;11220;48.812;9.128;2023-02-10T03:08:54;15.00;65.10
22108;DHT22;11220;48.812;9.128;2023-02-10T03:11:20;15.00;65.10
22108;DHT22;11220;48.812;9.128;2023-02-10T03:13:46;15.00;65.00
22108;DHT22;11220;48.812;9.128;2023-02-10T03:16:11;15.10;65.10
22108;DHT22;11220;48.812;9.128;2023-02-10T03:18:37;15.00;65.10
22108;DHT22;11220;48.812;9.128;2023-02-10T03:21:03;15.00;66.00
22108;DHT22;11220;48.812;9.128;2023-02-10T03:23:28;15.00;65.00
22108;DHT22;11220;48.812;9.128;2023-02-10T03:25:54;15.00;65.10
22108;DHT22;11220;48.812;9.128;2023-02-10T03:28:22;15.00;65.10
22108;DHT22;11220;48.812;9.128;2023-02-10T03:30:47;15.00;65.10
22108;DHT22;11220;48.812;9.128;2023-02-10T03:33:15;15.00;65.10
22108;DHT22;11220;48.812;9.128;2023-02-10T03:35:43;15.00;65.10
22108;DHT22;11220;48.812;9.128;2023-02-10T03:38:09;14.90;65.00
22108;DHT22;11220;48.812;9.128;2023-02-10T03:40:35;14.90;65.00
22108;DHT22;11220;48.812;9.128;2023-02-10T03:43:01;14.90;65.10
22108;DHT22;11220;48.812;9.128;2023-02-10T03:45:26;14.90;65.00
22108;DHT22;11220;48.812;9.128;2023-02-10T03:47:52;14.90;64.90
22108;DHT22;11220;48.812;9.128;2023-02-10T03:50:17;14.90;65.00
22108;DHT22;11220;48.812;9.128;2023-02-10T03:52:43;15.00;64.90
22108;DHT22;11220;48.812;9.128;2023-02-10T03:55:09;14.90;64.90
22108;DHT22;11220;48.812;9.128;2023-02-10T03:57:34;14.90;64.80
22108;DHT22;11220;48.812;9.128;2023-02-10T04:00:00;14.90;65.80
22108;DHT22;11220;48.812;9.128;2023-02-10T04:02:25;14.90;64.90
22108;DHT22;11220;48.812;9.128;2023-02-10T04:04:51;14.90;64.90
22108;DHT22;11220;48.812;9.128;2023-02-10T04:07:16;14.90;64.90
22108;DHT22;11220;48.812;9.128;2023-02-10T04:09:42;14.90;64.90
22108;DHT22;11220;48.812;9.128;2023-02-10T04:12:08;14.90;64.80
22108;DHT22;11220;48.812;9.128;2023-02-10T04:14:34;14.80;64.80
22108;DHT22;11220;48.812;9.128;2023-02-10T04:16:59;14.90;64.90
22108;DHT22;11220;48.812;9.128;2023-02-10T04:19:25;14.80;64.80
22108;DHT22;11220;48.812;9.128;2023-02-10T04:21:50;14.80;64.80
22108;DHT22;11220;48.812;9.128;2023-02-10T04:24:16;14.80;64.70
22108;DHT22;11220;48.812;9.128;2023-02-10T04:26:41;14.80;64.70
22108;DHT22;11220;48.812;9.128;2023-02-10T04:29:07;14.80;64.70
22108;DHT22;11220;48.812;9.128;2023-02-10T04:31:33;14.90;65.30
22108;DHT22;11220;48.812;9.128;2023-02-10T04:33:58;14.80;64.70
22108;DHT22;11220;48.812;9.128;2023-02-10T04:36:24;14.80;64.70
22108;DHT22;11220;48.812;9.128;2023-02-10T04:38:49;14.80;64.70
22108;DHT22;11220;48.812;9.128;2023-02-10T04:41:14;14.80;64.70
22108;DHT22;11220;48.812;9.128;2023-02-10T04:43:40;14.80;64.80
22108;DHT22;11220;48.812;9.128;2023-02-10T04:46:06;14.80;64.70
22108;DHT22;11220;48.812;9.128;2023-02-10T04:48:32;14.80;64.60
22108;DHT22;11220;48.812;9.128;2023-02-10T04:50:57;14.70;64.50
22108;DHT22;11220;48.812;9.128;2023-02-10T04:53:23;14.70;64.50
22108;DHT22;11220;48.812;9.128;2023-02-10T04:55:48;14.70;64.50
22108;DHT22;11220;48.812;9.128;2023-02-10T04:58:14;14.80;64.60
22108;DHT22;11220;48.812;9.128;2023-02-10T05:00:40;14.70;64.50
22108;DHT22;11220;48.812;9.128;2023-02-10T05:03:05;14.70;64.40
22108;DHT22;11220;48.812;9.128;2023-02-10T05:05:31;14.70;64.30
22108;DHT22;11220;48.812;9.128;2023-02-10T05:07:56;14.70;64.10
22108;DHT22;11220;48.812;9.128;2023-02-10T05:10:22;14.70;64.10
22108;DHT22;11220;48.812;9.128;2023-02-10T05:12:48;14.70;64.10
22108;DHT22;11220;48.812;9.128;2023-02-10T05:15:13;14.70;63.90
22108;DHT22;11220;48.812;9.128;2023-02-10T05:17:40;14.70;64.10
22108;DHT22;11220;48.812;9.128;2023-02-10T05:20:06;14.70;64.20
22108;DHT22;11220;48.812;9.128;2023-02-10T05:22:35;14.70;64.20
22108;DHT22;11220;48.812;9.128;2023-02-10T05:25:01;14.70;64.30
22108;DHT22;11220;48.812;9.128;2023-02-10T05:27:26;14.70;64.30
22108;DHT22;11220;48.812;9.128;2023-02-10T05:29:52;14.70;64.30
22108;DHT22;11220;48.812;9.128;2023-02-10T05:32:18;14.60;64.30
22108;DHT22;11220;48.812;9.128;2023-02-10T05:34:44;14.60;64.30
22108;DHT22;11220;48.812;9.128;2023-02-10T05:37:09;14.60;64.20
22108;DHT22;11220;48.812;9.128;2023-02-10T05:39:34;14.60;64.40
22108;DHT22;11220;48.812;9.128;2023-02-10T05:42:00;14.60;64.50
22108;DHT22;11220;48.812;9.128;2023-02-10T05:44:28;14.60;64.60
22108;DHT22;11220;48.812;9.128;2023-02-10T05:46:54;14.60;64.50
22108;DHT22;11220;48.812;9.128;2023-02-10T05:49:20;14.60;64.50
22108;DHT22;11220;48.812;9.128;2023-02-10T05:51:46;14.60;64.40
22108;DHT22;11220;48.812;9.128;2023-02-10T05:54:12;14.60;64.30
22108;DHT22;11220;48.812;9.128;2023-02-10T05:56:38;14.70;64.30
22108;DHT22;11220;48.812;9.128;2023-02-10T05:59:04;14.70;64.40
22108;DHT22;11220;48.812;9.128;2023-02-10T06:01:30;14.70;64.60
22108;DHT22;11220;48.812;9.128;2023-02-10T06:03:56;14.70;64.70
22108;DHT22;11220;48.812;9.128;2023-02-10T06:06:21;14.70;64.80
22108;DHT22;11220;48.812;9.128;2023-02-10T06:08:47;14.70;64.90
22108;DHT22;11220;48.812;9.128;2023-02-10T06:11:13;14.80;64.90
22108;DHT22;11220;48.812;9.128;2023-02-10T06:13:38;14.70;64.90
22108;DHT22;11220;48.812;9.128;2023-02-10T06:16:04;14.80;65.10
22108;DHT22;11220;48.812;9.128;2023-02-10T06:18:31;14.80;65.10
22108;DHT22;11220;48.812;9.128;2023-02-10T06:20:57;14.80;65.10
22108;DHT22;11220;48.812;9.128;2023-02-10T06:23:24;14.80;65.20
22108;DHT22;11220;48.812;9.128;2023-02-10T06:25:49;14.90;65.30
22108;DHT22;11220;48.812;9.128;2023-02-10T06:28:26;14.90;65.30
22108;DHT22;11220;48.812;9.128;2023-02-10T06:30:52;14.90;65.40
22108;DHT22;11220;48.812;9.128;2023-02-10T06:33:18;14.90;65.40
22108;DHT22;11220;48.812;9.128;2023-02-10T06:35:43;14.90;65.30
22108;DHT22;11220;48.812;9.128;2023-02-10T06:38:09;15.00;65.40
22108;DHT22;11220;48.812;9.128;2023-02-10T06:40:35;15.00;65.50
22108;DHT22;11220;48.812;9.128;2023-02-10T06:43:01;15.00;65.40
22108;DHT22;11220;48.812;9.128;2023-02-10T06:45:27;15.00;65.50
22108;DHT22;11220;48.812;9.128;2023-02-10T06:47:52;15.10;65.50
22108;DHT22;11220;48.812;9.128;2023-02-10T06:50:18;15.10;65.50
22108;DHT22;11220;48.812;9.128;2023-02-10T06:52:44;15.10;66.50
22108;DHT22;11220;48.812;9.128;2023-02-10T06:55:10;15.20;65.50
22108;DHT22;11220;48.812;9.128;2023-02-10T06:57:36;15.20;65.50
22108;DHT22;11220;48.812;9.128;2023-02-10T07:00:10;15.20;65.50
22108;DHT22;11220;48.812;9.128;2023-02-10T07:02:36;15.20;65.50
22108;DHT22;11220;48.812;9.128;2023-02-10T07:05:03;15.30;65.60
22108;DHT22;11220;48.812;9.128;2023-02-10T07:07:29;15.30;65.50
22108;DHT22;11220;48.812;9.128;2023-02-10T07:09:55;15.30;65.60
22108;DHT22;11220;48.812;9.128;2023-02-10T07:12:21;15.40;65.70
22108;DHT22;11220;48.812;9.128;2023-02-10T07:14:46;15.40;65.70
22108;DHT22;11220;48.812;9.128;2023-02-10T07:17:12;15.40;65.70
22108;DHT22;11220;48.812;9.128;2023-02-10T07:19:37;15.40;65.70
22108;DHT22;11220;48.812;9.128;2023-02-10T07:22:03;15.40;65.70
22108;DHT22;11220;48.812;9.128;2023-02-10T07:24:34;15.50;65.70
22108;DHT22;11220;48.812;9.128;2023-02-10T07:27:00;15.50;65.60
22108;DHT22;11220;48.812;9.128;2023-02-10T07:29:26;15.50;65.60
22108;DHT22;11220;48.812;9.128;2023-02-10T07:31:52;15.50;65.50
22108;DHT22;11220;48.812;9.128;2023-02-10T07:34:17;15.50;65.50
22108;DHT22;11220;48.812;9.128;2023-02-10T07:36:45;15.60;65.50
22108;DHT22;11220;48.812;9.128;2023-02-10T07:39:11;15.60;65.40
22108;DHT22;11220;48.812;9.128;2023-02-10T07:41:36;15.60;65.40
22108;DHT22;11220;48.812;9.128;2023-02-10T07:44:02;15.60;65.30
22108;DHT22;11220;48.812;9.128;2023-02-10T07:46:28;15.60;65.40
22108;DHT22;11220;48.812;9.128;2023-02-10T07:48:53;15.60;65.30
22108;DHT22;11220;48.812;9.128;2023-02-10T07:51:19;15.60;65.20
22108;DHT22;11220;48.812;9.128;2023-02-10T07:53:45;15.60;65.10
22108;DHT22;11220;48.812;9.128;2023-02-10T07:56:10;15.60;65.10
22108;DHT22;11220;48.812;9.128;2023-02-10T07:58:37;15.80;65.20
22108;DHT22;11220;48.812;9.128;2023-02-10T08:01:09;15.60;65.00
22108;DHT22;11220;48.812;9.128;2023-02-10T08:03:35;15.70;65.30
22108;DHT22;11220;48.812;9.128;2023-02-10T08:06:01;15.60;64.90
22108;DHT22;11220;48.812;9.128;2023-02-10T08:08:27;15.60;64.90
22108;DHT22;11220;48.812;9.128;2023-02-10T08:10:53;15.60;64.90
22108;DHT22;11220;48.812;9.128;2023-02-10T08:13:18;15.70;64.90
22108;DHT22;11220;48.812;9.128;2023-02-10T08:15:44;15.90;65.10
22108;DHT22;11220;48.812;9.128;2023-02-10T08:18:09;15.60;64.90
22108;DHT22;11220;48.812;9.128;2023-02-10T08:20:35;15.60;64.90
22108;DHT22;11220;48.812;9.128;2023-02-10T08:23:01;15.60;64.90
22108;DHT22;11220;48.812;9.128;2023-02-10T08:25:27;15.60;64.90
22108;DHT22;11220;48.812;9.128;2023-02-10T08:27:52;15.60;64.90
22108;DHT22;11220;48.812;9.128;2023-02-10T08:30:18;15.70;64.90
22108;DHT22;11220;48.812;9.128;2023-02-10T08:32:44;15.60;64.90
22108;DHT22;11220;48.812;9.128;2023-02-10T08:35:10;15.70;64.90
22108;DHT22;11220;48.812;9.128;2023-02-10T08:37:35;15.70;64.90
22108;DHT22;11220;48.812;9.128;2023-02-10T08:40:02;15.70;66.10
22108;DHT22;11220;48.812;9.128;2023-02-10T08:42:31;15.60;65.20
22108;DHT22;11220;48.812;9.128;2023-02-10T08:44:57;15.70;65.50
22108;DHT22;11220;48.812;9.128;2023-02-10T08:47:22;15.70;65.70
22108;DHT22;11220;48.812;9.128;2023-02-10T08:49:48;15.70;65.80
22108;DHT22;11220;48.812;9.128;2023-02-10T08:52:13;15.70;65.90
22108;DHT22;11220;48.812;9.128;2023-02-10T08:54:39;15.70;66.00
22108;DHT22;11220;48.812;9.128;2023-02-10T08:57:04;15.70;66.10
22108;DHT22;11220;48.812;9.128;2023-02-10T08:59:30;15.70;66.20
22108;DHT22;11220;48.812;9.128;2023-02-10T09:01:55;15.70;66.30
22108;DHT22;11220;48.812;9.128;2023-02-10T09:04:21;15.70;66.40
22108;DHT22;11220;48.812;9.128;2023-02-10T09:06:47;15.80;66.50
22108;DHT22;11220;48.812;9.128;2023-02-10T09:09:18;15.80;66.40
22108;DHT22;11220;48.812;9.128;2023-02-10T09:11:46;15.70;66.30
22108;DHT22;11220;48.812;9.128;2023-02-10T09:14:12;15.70;66.30
22108;DHT22;11220;48.812;9.128;2023-02-10T09:16:38;15.80;66.40
22108;DHT22;11220;48.812;9.128;2023-02-10T09:19:03;15.80;66.30
22108;DHT22;11220;48.812;9.128;2023-02-10T09:21:30;15.80;66.30
22108;DHT22;11220;48.812;9.128;2023-02-10T09:23:55;16.20;66.50
22108;DHT22;11220;48.812;9.128;2023-02-10T09:26:21;15.80;66.20
22108;DHT22;11220;48.812;9.128;2023-02-10T09:28:47;15.80;66.20
22108;DHT22;11220;48.812;9.128;2023-02-10T09:31:13;15.80;66.20
22108;DHT22;11220;48.812;9.128;2023-02-10T09:33:40;15.80;66.20
22108;DHT22;11220;48.812;9.128;2023-02-10T09:36:07;15.80;66.30
22108;DHT22;11220;48.812;9.128;2023-02-10T09:38:33;15.80;66.30
22108;DHT22;11220;48.812;9.128;2023-02-10T09:51:53;15.90;66.20
22108;DHT22;11220;48.812;9.128;2023-02-10T09:54:25;15.80;66.10
22108;DHT22;11220;48.812;9.128;2023-02-10T09:56:57;15.90;66.20
22108;DHT22;11220;48.812;9.128;2023-02-10T09:59:23;15.90;66.10
22108;DHT22;11220;48.812;9.128;2023-02-10T10:01:57;15.90;66.00
22108;DHT22;11220;48.812;9.128;2023-02-10T10:04:26;15.90;66.10
22108;DHT22;11220;48.812;9.128;2023-02-10T10:06:58;15.90;66.10
22108;DHT22;11220;48.812;9.128;2023-02-10T10:09:37;15.90;66.10
22108;DHT22;11220;48.812;9.128;2023-02-10T10:12:09;15.90;66.00
22108;DHT22;11220;48.812;9.128;2023-02-10T10:14:38;15.90;66.00
22108;DHT22;11220;48.812;9.128;2023-02-10T10:22:45;16.90;66.60
22108;DHT22;11220;48.812;9.128;2023-02-10T10:28:17;16.00;66.00
22108;DHT22;11220;48.812;9.128;2023-02-10T10:30:48;16.00;66.10
22108;DHT22;11220;48.812;9.128;2023-02-10T10:33:21;15.90;65.90
22108;DHT22;11220;48.812;9.128;2023-02-10T10:35:47;15.90;65.90
22108;DHT22;11220;48.812;9.128;2023-02-10T10:38:25;16.00;66.00
22108;DHT22;11220;48.812;9.128;2023-02-10T10:40:56;16.00;65.90
22108;DHT22;11220;48.812;9.128;2023-02-10T10:43:27;15.90;65.90
22108;DHT22;11220;48.812;9.128;2023-02-10T10:46:05;16.00;65.90
22108;DHT22;11220;48.812;9.128;2023-02-10T10:48:32;16.00;66.00
22108;DHT22;11220;48.812;9.128;2023-02-10T10:51:02;16.00;65.90
22108;DHT22;11220;48.812;9.128;2023-02-10T10:53:41;16.00;65.90
22108;DHT22;11220;48.812;9.128;2023-02-10T10:59:13;16.00;65.80
22108;DHT22;11220;48.812;9.128;2023-02-10T11:01:41;16.00;65.80
22108;DHT22;11220;48.812;9.128;2023-02-10T11:04:15;16.10;66.00
22108;DHT22;11220;48.812;9.128;2023-02-10T11:06:43;16.00;65.90
22108;DHT22;11220;48.812;9.128;2023-02-10T11:09:32;16.00;65.80
22108;DHT22;11220;48.812;9.128;2023-02-10T11:12:15;16.00;66.00
22108;DHT22;11220;48.812;9.128;2023-02-10T11:14:47;16.00;65.90
22108;DHT22;11220;48.812;9.128;2023-02-10T11:17:36;16.10;66.00
22108;DHT22;11220;48.812;9.128;2023-02-10T11:22:36;16.10;66.00
22108;DHT22;11220;48.812;9.128;2023-02-10T11:27:52;16.10;66.10
22108;DHT22;11220;48.812;9.128;2023-02-10T11:30:28;16.10;66.10
22108;DHT22;11220;48.812;9.128;2023-02-10T11:32:55;16.10;66.00
22108;DHT22;11220;48.812;9.128;2023-02-10T11:35:22;16.10;63.20
22108;DHT22;11220;48.812;9.128;2023-02-10T11:37:54;16.00;63.20
22108;DHT22;11220;48.812;9.128;2023-02-10T11:40:25;16.00;62.20
22108;DHT22;11220;48.812;9.128;2023-02-10T11:42:56;15.90;63.10
22108;DHT22;11220;48.812;9.128;2023-02-10T11:45:30;16.00;63.90
22108;DHT22;11220;48.812;9.128;2023-02-10T11:48:17;16.00;64.40
22108;DHT22;11220;48.812;9.128;2023-02-10T11:50:44;16.00;64.60
22108;DHT22;11220;48.812;9.128;2023-02-10T11:53:23;16.00;64.60
22108;DHT22;11220;48.812;9.128;2023-02-10T11:55:58;16.10;64.70
22108;DHT22;11220;48.812;9.128;2023-02-10T11:58:54;16.10;64.80
22108;DHT22;11220;48.812;9.128;2023-02-10T12:01:49;16.10;64.80
22108;DHT22;11220;48.812;9.128;2023-02-10T12:07:28;16.20;64.90
22108;DHT22;11220;48.812;9.128;2023-02-10T12:12:44;16.30;64.80
22108;DHT22;11220;48.812;9.128;2023-02-10T12:18:26;16.40;65.00
22108;DHT22;11220;48.812;9.128;2023-02-10T12:21:24;16.40;64.90
22108;DHT22;11220;48.812;9.128;2023-02-10T12:23:59;16.40;64.90
22108;DHT22;11220;48.812;9.128;2023-02-10T12:26:41;16.50;64.90
22108;DHT22;11220;48.812;9.128;2023-02-10T12:32:38;16.60;64.90
22108;DHT22;11220;48.812;9.128;2023-02-10T12:40:54;16.70;65.20
22108;DHT22;11220;48.812;9.128;2023-02-10T12:49:13;16.70;65.20
22108;DHT22;11220;48.812;9.128;2023-02-10T12:54:24;16.80;65.20
22108;DHT22;11220;48.812;9.128;2023-02-10T12:56:54;16.90;65.30
22108;DHT22;11220;48.812;9.128;2023-02-10T12:59:26;16.90;65.20
22108;DHT22;11220;48.812;9.128;2023-02-10T13:02:02;17.00;65.30
22108;DHT22;11220;48.812;9.128;2023-02-10T13:04:30;17.00;65.20
22108;DHT22;11220;48.812;9.128;2023-02-10T13:07:03;17.00;65.10
22108;DHT22;11220;48.812;9.128;2023-02-10T13:10:02;17.10;65.10
22108;DHT22;11220;48.812;9.128;2023-02-10T13:12:35;17.10;65.10
22108;DHT22;11220;48.812;9.128;2023-02-10T13:15:18;17.10;65.00
22108;DHT22;11220;48.812;9.128;2023-02-10T13:17:48;17.20;65.00
22108;DHT22;11220;48.812;9.128;2023-02-10T13:20:40;17.30;65.00
22108;DHT22;11220;48.812;9.128;2023-02-10T13:28:50;17.40;64.80
22108;DHT22;11220;48.812;9.128;2023-02-10T13:31:47;17.40;64.70
22108;DHT22;11220;48.812;9.128;2023-02-10T13:34:22;17.50;64.80
22108;DHT22;11220;48.812;9.128;2023-02-10T13:36:56;17.50;64.80
22108;DHT22;11220;48.812;9.128;2023-02-10T13:39:24;17.60;64.80
22108;DHT22;11220;48.812;9.128;2023-02-10T13:42:09;17.60;64.80
22108;DHT22;11220;48.812;9.128;2023-02-10T13:44:39;17.70;64.90
22108;DHT22;11220;48.812;9.128;2023-02-10T13:47:30;17.70;65.00
22108;DHT22;11220;48.812;9.128;2023-02-10T13:50:01;17.70;65.00
22108;DHT22;11220;48.812;9.128;2023-02-10T13:52:31;17.80;65.00
22108;DHT22;11220;48.812;9.128;2023-02-10T13:55:03;17.80;65.90
22108;DHT22;11220;48.812;9.128;2023-02-10T13:57:36;17.80;64.90
22108;DHT22;11220;48.812;9.128;2023-02-10T14:00:20;17.90;65.70
22108;DHT22;11220;48.812;9.128;2023-02-10T14:02:59;17.90;64.70
22108;DHT22;11220;48.812;9.128;2023-02-10T14:05:32;17.90;64.60
22108;DHT22;11220;48.812;9.128;2023-02-10T14:07:59;18.00;64.70
22108;DHT22;11220;48.812;9.128;2023-02-10T14:10:30;18.00;64.60
22108;DHT22;11220;48.812;9.128;2023-02-10T14:13:18;18.00;64.60
22108;DHT22;11220;48.812;9.128;2023-02-10T14:15:58;18.10;64.60
22108;DHT22;11220;48.812;9.128;2023-02-10T14:18:35;18.00;64.40
22108;DHT22;11220;48.812;9.128;2023-02-10T14:21:05;18.10;64.40
22108;DHT22;11220;48.812;9.128;2023-02-10T14:23:33;18.10;64.50
22108;DHT22;11220;48.812;9.128;2023-02-10T14:26:06;18.10;64.40
22108;DHT22;11220;48.812;9.128;2023-02-10T14:28:36;18.10;64.40
22108;DHT22;11220;48.812;9.128;2023-02-10T14:31:05;18.10;64.40
22108;DHT22;11220;48.812;9.128;2023-02-10T14:33:35;18.20;64.50
22108;DHT22;11220;48.812;9.128;2023-02-10T14:36:04;18.20;64.40
22108;DHT22;11220;48.812;9.128;2023-02-10T14:38:33;18.20;64.50
22108;DHT22;11220;48.812;9.128;2023-02-10T14:41:00;18.20;64.60
22108;DHT22;11220;48.812;9.128;2023-02-10T14:43:31;18.20;64.20
22108;DHT22;11220;48.812;9.128;2023-02-10T14:45:59;18.20;64.30
22108;DHT22;11220;48.812;9.128;2023-02-10T14:48:26;18.30;64.40
22108;DHT22;11220;48.812;9.128;2023-02-10T14:51:03;18.30;64.40
22108;DHT22;11220;48.812;9.128;2023-02-10T14:53:32;18.30;64.40
22108;DHT22;11220;48.812;9.128;2023-02-10T14:56:00;18.30;64.40
22108;DHT22;11220;48.812;9.128;2023-02-10T14:58:26;18.40;64.40
22108;DHT22;11220;48.812;9.128;2023-02-10T15:00:55;18.40;64.30
22108;DHT22;11220;48.812;9.128;2023-02-10T15:03:22;18.40;64.20
22108;DHT22;11220;48.812;9.128;2023-02-10T15:05:50;18.40;64.20
22108;DHT22;11220;48.812;9.128;2023-02-10T15:11:23;18.40;64.20
22108;DHT22;11220;48.812;9.128;2023-02-10T15:14:27;18.40;64.60
22108;DHT22;11220;48.812;9.128;2023-02-10T15:17:02;18.40;65.10
22108;DHT22;11220;48.812;9.128;2023-02-10T15:19:29;18.40;65.30
22108;DHT22;11220;48.812;9.128;2023-02-10T15:21:54;18.40;65.60
22108;DHT22;11220;48.812;9.128;2023-02-10T15:24:30;18.40;65.90
22108;DHT22;11220;48.812;9.128;2023-02-10T15:27:15;18.40;66.10
22108;DHT22;11220;48.812;9.128;2023-02-10T15:29:40;18.40;66.40
22108;DHT22;11220;48.812;9.128;2023-02-10T15:32:19;18.40;66.60
22108;DHT22;11220;48.812;9.128;2023-02-10T15:34:46;18.40;66.80
22108;DHT22;11220;48.812;9.128;2023-02-10T15:37:24;18.30;67.00
22108;DHT22;11220;48.812;9.128;2023-02-10T15:40:00;18.30;66.90
22108;DHT22;11220;48.812;9.128;2023-02-10T15:42:29;18.30;66.70
22108;DHT22;11220;48.812;9.128;2023-02-10T15:45:16;18.20;66.50
22108;DHT22;11220;48.812;9.128;2023-02-10T15:48:06;18.20;66.50
22108;DHT22;11220;48.812;9.128;2023-02-10T15:50:33;18.10;66.50
22108;DHT22;11220;48.812;9.128;2023-02-10T15:52:59;18.10;66.40
22108;DHT22;11220;48.812;9.128;2023-02-10T15:55:31;18.10;66.40
22108;DHT22;11220;48.812;9.128;2023-02-10T15:57:58;18.00;66.30
22108;DHT22;11220;48.812;9.128;2023-02-10T16:00:27;18.00;66.30
22108;DHT22;11220;48.812;9.128;2023-02-10T16:02:53;18.00;66.20
22108;DHT22;11220;48.812;9.128;2023-02-10T16:05:19;18.00;66.20
22108;DHT22;11220;48.812;9.128;2023-02-10T16:07:45;17.90;66.10
22108;DHT22;11220;48.812;9.128;2023-02-10T16:10:24;17.90;66.10
22108;DHT22;11220;48.812;9.128;2023-02-10T16:12:51;17.90;66.10
22108;DHT22;11220;48.812;9.128;2023-02-10T16:15:22;17.80;66.00
22108;DHT22;11220;48.812;9.128;2023-02-10T16:17:53;17.80;66.10
22108;DHT22;11220;48.812;9.128;2023-02-10T16:20:23;17.80;66.10
22108;DHT22;11220;48.812;9.128;2023-02-10T16:22:49;17.70;67.00
22108;DHT22;11220;48.812;9.128;2023-02-10T16:25:18;17.70;66.20
22108;DHT22;11220;48.812;9.128;2023-02-10T16:27:44;17.70;66.10
22108;DHT22;11220;48.812;9.128;2023-02-10T16:30:19;17.60;66.00
22108;DHT22;11220;48.812;9.128;2023-02-10T16:32:45;17.60;66.10
22108;DHT22;11220;48.812;9.128;2023-02-10T16:35:11;17.60;66.10
22108;DHT22;11220;48.812;9.128;2023-02-10T16:37:38;17.50;66.10
22108;DHT22;11220;48.812;9.128;2023-02-10T16:40:04;17.50;66.10
22108;DHT22;11220;48.812;9.128;2023-02-10T16:42:30;17.50;66.10
22108;DHT22;11220;48.812;9.128;2023-02-10T16:44:55;17.50;66.20
22108;DHT22;11220;48.812;9.128;2023-02-10T16:47:21;17.40;66.20
22108;DHT22;11220;48.812;9.128;2023-02-10T16:49:48;17.40;66.20
22108;DHT22;11220;48.812;9.128;2023-02-10T16:52:13;17.40;66.30
22108;DHT22;11220;48.812;9.128;2023-02-10T16:54:40;17.40;66.40
22108;DHT22;11220;48.812;9.128;2023-02-10T16:57:05;17.30;66.30
22108;DHT22;11220;48.812;9.128;2023-02-10T16:59:32;17.30;66.40
22108;DHT22;11220;48.812;9.128;2023-02-10T17:01:58;17.30;66.40
22108;DHT22;11220;48.812;9.128;2023-02-10T17:04:23;17.30;66.50